Etusivu
METAR-TAF:

METAR-TAF

Lentoasemat :

Black River Falls, Wisconsin, Yhdysvallat

Leveyspiiri: 44-15-03N, Pituuspiiri: 090-51-19W, korkeus merenpinnasta: 255 m

Tämänhetkinen sää

Tämä raportti tehtiin 21 minuuttia sitten, kello 12.55 UTC
tyyntä
Lämpötila -1°C
Kosteus 80%
Ilmanpaine 1025 hPa
Näkyvyys: 16.1 km
Pilvistä 2300 ft:n korkeudessa

METAR: KBCK 151255Z AUTO 00000KT 10SM OVC023 M01/M04 A3028 RMK AO2 T10141041

Aika: 07:16 (13:16 UTC)


TAF: puuttuu

Säähavainnot ja -ennusteet yli 4000 lentoasemalta (METAR- ja TAF-raportit).

Käytössä olevat sääasemat on merkitty karttaan keltaisilla ja punaisilla pisteillä.

Aseta hiiri pisteen päälle nähdäksesi sääaseman nimen.

Klikkaa sitten nähdäksesi säähavainnot ja -ennusteet.

Kartan vaihtaminen: klikkaa mustalla rastilla varustettuja vihreitä pisteitä, niin voit zoomata sisään; viivalla varustettua vihreää pistettä, niin voit zoomata ulos tai vihreitä nuolia, niin pääset viereisille kartoille.


METAR-TAF: